createdAt,value
2023-01-08T00:00:29.160Z,44.43
2023-01-08T00:02:56.275Z,43.75
2023-01-08T00:05:23.118Z,44.26
2023-01-08T00:07:50.038Z,44.49
2023-01-08T00:10:16.973Z,43.68
2023-01-08T00:12:43.815Z,44.45
2023-01-08T00:15:10.958Z,44.47
2023-01-08T00:17:37.905Z,44.32
2023-01-08T00:20:05.201Z,44.29
2023-01-08T00:22:32.049Z,45.21
2023-01-08T00:24:58.879Z,46.13
2023-01-08T00:27:25.823Z,45.25
2023-01-08T00:29:52.656Z,44.84
2023-01-08T00:32:38.482Z,45.32
2023-01-08T00:35:06.107Z,45.03
2023-01-08T00:37:51.174Z,45.52
2023-01-08T00:40:18.158Z,45.37
2023-01-08T00:43:03.428Z,44.88
2023-01-08T00:45:30.646Z,45.49
2023-01-08T00:47:57.618Z,44.89
2023-01-08T00:50:25.352Z,44.52
2023-01-08T00:52:52.281Z,45.54
2023-01-08T00:55:19.562Z,45.56
2023-01-08T00:57:46.479Z,44.94
2023-01-08T01:00:15.830Z,45.29
2023-01-08T01:02:43.183Z,45.43
2023-01-08T01:05:12.796Z,44.78
2023-01-08T01:07:39.599Z,45.58
2023-01-08T01:10:07.026Z,45.04
2023-01-08T01:12:33.899Z,44.61
2023-01-08T01:15:00.833Z,45.18
2023-01-08T01:17:27.639Z,45.32
2023-01-08T01:19:54.581Z,45.41
2023-01-08T01:22:21.429Z,46.43
2023-01-08T01:24:48.335Z,45.69
2023-01-08T01:27:15.181Z,45.71
2023-01-08T01:29:42.093Z,45.50
2023-01-08T01:32:27.718Z,46.80
2023-01-08T01:34:54.724Z,46.19
2023-01-08T01:37:21.530Z,46.32
2023-01-08T01:40:06.915Z,46.49
2023-01-08T01:42:33.814Z,45.74
2023-01-08T01:45:00.819Z,45.59
2023-01-08T01:47:35.778Z,46.32
2023-01-08T01:50:15.704Z,45.65
2023-01-08T01:53:05.505Z,45.79
2023-01-08T01:55:33.891Z,46.05
2023-01-08T01:58:17.462Z,46.32
2023-01-08T02:00:44.907Z,46.15
2023-01-08T02:03:14.100Z,46.00
2023-01-08T02:06:00.181Z,46.49
2023-01-08T02:08:51.492Z,45.83
2023-01-08T02:11:49.579Z,46.51
2023-01-08T02:14:26.292Z,46.64
2023-01-08T02:17:04.273Z,45.95
2023-01-08T02:19:46.156Z,45.42
2023-01-08T02:22:38.021Z,45.55
2023-01-08T02:25:27.685Z,46.09
2023-01-08T02:27:57.155Z,45.19
2023-01-08T02:30:25.196Z,45.45
2023-01-08T02:32:52.096Z,45.97
2023-01-08T02:35:19.008Z,45.59
2023-01-08T02:37:46.130Z,45.89
2023-01-08T02:40:25.009Z,45.22
2023-01-08T02:43:17.790Z,45.60
2023-01-08T02:45:50.970Z,46.27
2023-01-08T02:48:39.224Z,46.27
2023-01-08T02:51:13.373Z,45.90
2023-01-08T02:53:44.868Z,46.66
2023-01-08T02:56:16.665Z,45.96
2023-01-08T02:58:45.968Z,46.43
2023-01-08T03:01:17.261Z,45.76
2023-01-08T03:03:49.400Z,46.21
2023-01-08T03:06:19.252Z,46.05
2023-01-08T03:08:49.120Z,45.69
2023-01-08T03:11:19.987Z,45.93
2023-01-08T03:13:55.822Z,46.35
2023-01-08T03:16:48.000Z,45.69
2023-01-08T03:19:22.224Z,46.59
2023-01-08T03:21:51.983Z,46.35
2023-01-08T03:24:26.905Z,46.05
2023-01-08T03:26:57.774Z,45.48
2023-01-08T03:29:27.611Z,46.51
2023-01-08T03:31:59.040Z,46.38
2023-01-08T03:34:28.118Z,46.78
2023-01-08T03:37:00.717Z,45.78
2023-01-08T03:39:40.429Z,46.47
2023-01-08T03:42:11.367Z,46.45
2023-01-08T03:44:38.441Z,45.49
2023-01-08T03:47:08.974Z,46.37
2023-01-08T03:49:38.067Z,46.42
2023-01-08T03:52:23.229Z,45.89
2023-01-08T03:54:50.209Z,46.55
2023-01-08T03:57:17.123Z,46.61
2023-01-08T03:59:44.040Z,45.93
2023-01-08T04:02:10.970Z,46.38
2023-01-08T04:04:38.046Z,46.59
2023-01-08T04:07:05.149Z,46.53
2023-01-08T04:09:32.455Z,46.82
2023-01-08T04:11:59.312Z,46.80
2023-01-08T04:14:26.269Z,47.13
2023-01-08T04:16:53.737Z,46.18
2023-01-08T04:19:20.644Z,46.62
2023-01-08T04:21:50.744Z,46.59
2023-01-08T04:24:17.998Z,47.69
2023-01-08T04:26:44.833Z,48.19
2023-01-08T04:29:13.141Z,48.06
2023-01-08T04:31:58.264Z,48.10
2023-01-08T04:34:25.167Z,48.07
2023-01-08T04:36:52.001Z,48.37
2023-01-08T04:39:18.913Z,48.00
2023-01-08T04:41:45.823Z,49.25
2023-01-08T04:44:12.761Z,49.44
2023-01-08T04:46:39.672Z,49.66
2023-01-08T04:49:06.663Z,49.16
2023-01-08T04:52:10.599Z,49.02
2023-01-08T04:54:37.482Z,49.50
2023-01-08T04:57:04.389Z,50.73
2023-01-08T04:59:31.268Z,49.77
2023-01-08T05:01:58.237Z,51.23
2023-01-08T05:04:25.283Z,50.87
2023-01-08T05:06:52.143Z,51.20
2023-01-08T05:09:19.057Z,51.91
2023-01-08T05:11:46.025Z,51.17
2023-01-08T05:14:12.981Z,52.24
2023-01-08T05:16:39.837Z,51.59
2023-01-08T05:19:06.684Z,52.44
2023-01-08T05:21:33.614Z,52.02
2023-01-08T05:24:00.585Z,53.05
2023-01-08T05:26:27.452Z,52.47
2023-01-08T05:28:54.368Z,52.07
2023-01-08T05:31:21.346Z,52.71
2023-01-08T05:33:48.332Z,52.76
2023-01-08T05:36:15.235Z,52.19
2023-01-08T05:38:42.082Z,52.07
2023-01-08T05:41:10.018Z,52.73
2023-01-08T05:43:37.531Z,53.08
2023-01-08T05:46:05.180Z,52.75
2023-01-08T05:48:34.323Z,52.38
2023-01-08T05:51:01.557Z,52.57
2023-01-08T05:53:28.503Z,51.80
2023-01-08T05:56:09.388Z,51.13
2023-01-08T05:58:37.039Z,51.33
2023-01-08T06:01:06.827Z,51.41
2023-01-08T06:03:34.033Z,52.60
2023-01-08T06:06:02.906Z,51.39
2023-01-08T06:08:30.675Z,52.20
2023-01-08T06:11:06.525Z,51.67
2023-01-08T06:13:34.767Z,52.29
2023-01-08T06:16:02.301Z,52.23
2023-01-08T06:18:30.305Z,51.70
2023-01-08T06:20:57.211Z,51.77
2023-01-08T06:23:24.150Z,50.95
2023-01-08T06:25:55.552Z,50.94
2023-01-08T06:28:23.201Z,51.19
2023-01-08T06:30:50.813Z,52.04
2023-01-08T06:33:21.334Z,50.80
2023-01-08T06:35:48.737Z,51.02
2023-01-08T06:38:16.346Z,50.83
2023-01-08T06:40:43.172Z,50.77
2023-01-08T06:43:09.955Z,51.26
2023-01-08T06:45:36.769Z,50.71
2023-01-08T06:48:05.995Z,50.23
2023-01-08T06:50:34.891Z,50.83
2023-01-08T06:53:01.773Z,50.57
2023-01-08T06:55:28.683Z,50.51
2023-01-08T06:57:57.356Z,50.11
2023-01-08T07:00:25.561Z,49.42
2023-01-08T07:02:53.576Z,49.88
2023-01-08T07:05:20.826Z,49.89
2023-01-08T07:07:47.711Z,49.77
2023-01-08T07:10:14.624Z,49.73
2023-01-08T07:12:41.432Z,49.40
2023-01-08T07:15:08.817Z,50.19
2023-01-08T07:17:35.873Z,49.76
2023-01-08T07:20:02.882Z,49.51
2023-01-08T07:22:29.698Z,50.25
2023-01-08T07:24:56.617Z,49.11
2023-01-08T07:27:23.405Z,49.41
2023-01-08T07:29:50.904Z,49.63
2023-01-08T07:32:17.737Z,49.47
2023-01-08T07:34:46.066Z,49.15
2023-01-08T07:37:12.871Z,48.72
2023-01-08T07:39:39.882Z,48.62
2023-01-08T07:42:06.719Z,47.97
2023-01-08T07:44:52.356Z,48.61
2023-01-08T07:47:19.229Z,48.12
2023-01-08T07:49:46.021Z,48.40
2023-01-08T07:52:13.048Z,47.78
2023-01-08T07:54:39.916Z,47.81
2023-01-08T07:57:06.945Z,47.58
2023-01-08T07:59:33.841Z,47.79
2023-01-08T08:02:01.180Z,47.36
2023-01-08T08:04:28.475Z,47.70
2023-01-08T08:06:55.544Z,47.48
2023-01-08T08:09:22.407Z,46.83
2023-01-08T08:11:49.255Z,46.96
2023-01-08T08:14:16.187Z,46.29
2023-01-08T08:16:43.143Z,46.59
2023-01-08T08:19:11.648Z,46.61
2023-01-08T08:21:39.058Z,46.65
2023-01-08T08:24:06.330Z,47.32
2023-01-08T08:26:33.245Z,46.92
2023-01-08T08:29:00.102Z,46.92
2023-01-08T08:31:27.055Z,47.71
2023-01-08T08:33:53.940Z,47.07
2023-01-08T08:36:20.912Z,47.23
2023-01-08T08:38:47.717Z,46.24
2023-01-08T08:41:17.567Z,46.09
2023-01-08T08:43:44.584Z,46.81
2023-01-08T08:46:11.401Z,46.44
2023-01-08T08:48:38.232Z,47.12
2023-01-08T08:51:05.232Z,47.12
2023-01-08T08:53:32.048Z,46.03
2023-01-08T08:55:59.190Z,46.67
2023-01-08T08:58:26.041Z,46.65
2023-01-08T09:00:52.884Z,46.36
2023-01-08T09:03:19.811Z,46.39
2023-01-08T09:05:46.768Z,45.68
2023-01-08T09:08:13.785Z,45.74
2023-01-08T09:10:41.152Z,45.34
2023-01-08T09:13:08.491Z,45.31
2023-01-08T09:15:37.134Z,46.03
2023-01-08T09:18:04.537Z,46.21
2023-01-08T09:20:31.454Z,44.92
2023-01-08T09:22:59.620Z,45.29
2023-01-08T09:25:27.181Z,44.51
2023-01-08T09:28:08.416Z,45.04
2023-01-08T09:30:35.690Z,44.77
2023-01-08T09:33:03.472Z,44.71
2023-01-08T09:35:32.048Z,45.43
2023-01-08T09:37:59.650Z,46.17
2023-01-08T09:40:35.324Z,45.78
2023-01-08T09:43:04.799Z,45.80
2023-01-08T09:45:35.768Z,45.29
2023-01-08T09:48:10.565Z,45.30
2023-01-08T09:50:38.303Z,45.52
2023-01-08T09:53:05.496Z,45.48
2023-01-08T09:55:34.523Z,46.20
2023-01-08T09:58:03.377Z,45.96
2023-01-08T10:00:34.005Z,46.36
2023-01-08T10:03:01.247Z,46.50
2023-01-08T10:05:28.201Z,47.27
2023-01-08T10:07:55.125Z,47.48
2023-01-08T10:10:28.078Z,47.16
2023-01-08T10:12:55.555Z,47.28
2023-01-08T10:15:22.966Z,47.91
2023-01-08T10:18:02.418Z,48.33
2023-01-08T10:20:30.790Z,48.19
2023-01-08T10:23:15.455Z,48.11
2023-01-08T10:25:58.859Z,48.84
2023-01-08T10:28:27.151Z,47.53
2023-01-08T10:30:59.927Z,48.82
2023-01-08T10:33:31.871Z,48.87
2023-01-08T10:36:02.554Z,48.35
2023-01-08T10:38:48.260Z,48.10
2023-01-08T10:41:16.072Z,48.54
2023-01-08T10:43:51.887Z,48.51
2023-01-08T10:46:25.990Z,47.67
2023-01-08T10:49:00.341Z,47.22
2023-01-08T10:51:30.127Z,46.95
2023-01-08T10:54:01.216Z,46.90
2023-01-08T10:56:30.476Z,47.09
2023-01-08T10:58:57.957Z,48.03
2023-01-08T11:01:30.048Z,47.92
2023-01-08T11:04:00.303Z,48.15
2023-01-08T11:06:30.676Z,47.43
2023-01-08T11:09:01.695Z,48.13
2023-01-08T11:11:36.908Z,48.50
2023-01-08T11:14:12.046Z,48.60
2023-01-08T11:16:42.004Z,48.22
2023-01-08T11:19:18.840Z,48.60
2023-01-08T11:22:06.895Z,49.11
2023-01-08T11:24:36.856Z,48.83
2023-01-08T11:27:31.699Z,48.44
2023-01-08T11:30:06.430Z,49.13
2023-01-08T11:33:00.177Z,48.62
2023-01-08T11:35:29.450Z,48.60
2023-01-08T11:38:01.648Z,49.33
2023-01-08T11:40:31.308Z,49.62
2023-01-08T11:43:18.734Z,49.67
2023-01-08T11:46:22.755Z,49.32
2023-01-08T11:48:58.429Z,48.49
2023-01-08T11:51:37.584Z,48.13
2023-01-08T11:54:46.613Z,48.42
2023-01-08T11:57:31.879Z,47.42
2023-01-08T11:59:58.949Z,47.85
2023-01-08T12:02:53.233Z,48.11
2023-01-08T12:05:48.423Z,47.78
2023-01-08T12:08:39.424Z,48.68
2023-01-08T12:11:29.918Z,48.85
2023-01-08T12:14:19.734Z,48.83
2023-01-08T12:17:19.629Z,49.36
2023-01-08T12:20:24.882Z,50.88
2023-01-08T12:23:06.177Z,51.25
2023-01-08T12:26:03.421Z,51.51
2023-01-08T12:28:55.095Z,51.34
2023-01-08T12:31:48.678Z,51.32
2023-01-08T12:34:36.555Z,51.29
2023-01-08T12:37:14.777Z,51.10
2023-01-08T12:39:58.399Z,51.28
2023-01-08T12:42:29.737Z,51.37
2023-01-08T12:45:01.684Z,52.30
2023-01-08T12:47:35.564Z,52.43
2023-01-08T12:50:14.479Z,52.12
2023-01-08T12:53:14.162Z,52.36
2023-01-08T12:55:44.245Z,52.99
2023-01-08T12:58:23.514Z,53.19
2023-01-08T13:01:07.016Z,53.10
2023-01-08T13:03:34.374Z,53.56
2023-01-08T13:06:15.197Z,53.77
2023-01-08T13:08:48.580Z,53.62
2023-01-08T13:11:27.398Z,53.52
2023-01-08T13:14:10.831Z,53.65
2023-01-08T13:16:40.163Z,53.49
2023-01-08T13:19:22.078Z,53.99
2023-01-08T13:21:58.562Z,53.59
2023-01-08T13:24:34.732Z,53.05
2023-01-08T13:27:14.749Z,52.95
2023-01-08T13:29:47.199Z,52.22
2023-01-08T13:32:48.521Z,52.12
2023-01-08T13:35:15.622Z,51.99
2023-01-08T13:37:43.143Z,52.24
2023-01-08T13:40:44.183Z,52.31
2023-01-08T13:43:38.858Z,52.20
2023-01-08T13:46:18.334Z,52.08
2023-01-08T13:49:10.294Z,51.57
2023-01-08T13:51:46.159Z,51.82
2023-01-08T13:54:13.022Z,52.02
2023-01-08T13:56:46.137Z,52.33
2023-01-08T13:59:41.344Z,52.41
2023-01-08T14:02:34.812Z,52.30
2023-01-08T14:05:12.149Z,52.44
2023-01-08T14:07:39.347Z,52.31
2023-01-08T14:10:13.093Z,52.16
2023-01-08T14:12:40.585Z,51.97
2023-01-08T14:15:10.274Z,51.26
2023-01-08T14:17:37.748Z,51.20
2023-01-08T14:20:11.977Z,51.41
2023-01-08T14:22:42.053Z,51.09
2023-01-08T14:25:15.284Z,51.31
2023-01-08T14:27:42.265Z,50.90
2023-01-08T14:30:16.807Z,50.79
2023-01-08T14:32:44.145Z,50.63
2023-01-08T14:35:17.812Z,51.45
2023-01-08T14:37:45.210Z,51.00
2023-01-08T14:40:17.429Z,50.92
2023-01-08T14:42:45.886Z,50.76
2023-01-08T14:45:22.079Z,50.49
2023-01-08T14:47:53.161Z,50.15
2023-01-08T14:50:26.949Z,50.37
2023-01-08T14:53:19.676Z,50.65
2023-01-08T14:55:49.706Z,50.40
2023-01-08T14:58:22.140Z,50.84
2023-01-08T15:00:57.763Z,50.68
2023-01-08T15:03:41.903Z,50.86
2023-01-08T15:06:10.199Z,50.78
2023-01-08T15:08:42.213Z,51.06
2023-01-08T15:11:27.646Z,51.01
2023-01-08T15:13:56.145Z,51.34
2023-01-08T15:16:28.815Z,51.56
2023-01-08T15:19:04.052Z,51.39
2023-01-08T15:21:33.283Z,51.52
2023-01-08T15:24:02.570Z,51.55
2023-01-08T15:26:29.929Z,51.67
2023-01-08T15:29:24.404Z,51.31
2023-01-08T15:31:51.407Z,51.76
2023-01-08T15:34:21.691Z,51.63
2023-01-08T15:36:48.797Z,51.11
2023-01-08T15:39:15.746Z,51.09
2023-01-08T15:41:42.810Z,51.87
2023-01-08T15:44:11.607Z,51.63
2023-01-08T15:46:39.963Z,51.38
2023-01-08T15:49:06.779Z,50.87
2023-01-08T15:51:36.153Z,51.50
2023-01-08T15:54:03.098Z,51.02
2023-01-08T15:56:30.120Z,51.54
2023-01-08T15:58:57.156Z,51.61
2023-01-08T16:01:25.731Z,51.67
2023-01-08T16:03:53.005Z,51.75
2023-01-08T16:06:22.036Z,51.73
2023-01-08T16:08:48.887Z,51.39
2023-01-08T16:11:19.980Z,51.95
2023-01-08T16:13:46.960Z,51.62
2023-01-08T16:16:16.212Z,50.96
2023-01-08T16:18:43.599Z,51.55
2023-01-08T16:21:11.197Z,51.17
2023-01-08T16:23:39.355Z,51.00
2023-01-08T16:26:14.764Z,51.12
2023-01-08T16:28:42.598Z,51.19
2023-01-08T16:31:10.539Z,51.83
2023-01-08T16:33:38.025Z,51.93
2023-01-08T16:36:07.224Z,51.80
2023-01-08T16:38:38.030Z,52.24
2023-01-08T16:41:05.570Z,51.49
2023-01-08T16:43:39.919Z,51.86
2023-01-08T16:46:12.986Z,51.87
2023-01-08T16:48:41.479Z,52.20
2023-01-08T16:51:09.132Z,51.98
2023-01-08T16:53:37.299Z,51.79
2023-01-08T16:56:05.483Z,51.76
2023-01-08T16:58:51.787Z,51.56
2023-01-08T17:01:19.206Z,51.71
2023-01-08T17:03:46.217Z,51.62
2023-01-08T17:06:14.983Z,51.75
2023-01-08T17:08:42.394Z,51.08
2023-01-08T17:11:11.232Z,51.19
2023-01-08T17:13:38.440Z,50.71
2023-01-08T17:16:07.265Z,51.31
2023-01-08T17:18:35.536Z,51.08
2023-01-08T17:21:02.945Z,51.09
2023-01-08T17:23:30.058Z,50.81
2023-01-08T17:25:58.809Z,50.46
2023-01-08T17:28:27.317Z,50.72
2023-01-08T17:31:01.179Z,50.63
2023-01-08T17:33:28.107Z,50.89
2023-01-08T17:35:54.960Z,51.31
2023-01-08T17:38:21.942Z,50.92
2023-01-08T17:40:48.989Z,50.88
2023-01-08T17:43:15.973Z,50.82
2023-01-08T17:45:43.203Z,50.33
2023-01-08T17:48:11.782Z,50.83
2023-01-08T17:50:40.013Z,50.78
2023-01-08T17:53:06.904Z,51.36
2023-01-08T17:55:33.814Z,50.81
2023-01-08T17:58:01.002Z,51.17
2023-01-08T18:00:27.844Z,50.70
2023-01-08T18:02:55.218Z,51.07
2023-01-08T18:05:22.234Z,51.15
2023-01-08T18:07:49.463Z,51.20
2023-01-08T18:10:19.023Z,51.42
2023-01-08T18:12:46.204Z,51.36
2023-01-08T18:15:16.439Z,51.79
2023-01-08T18:17:45.389Z,51.56
2023-01-08T18:20:12.548Z,51.30
2023-01-08T18:22:39.739Z,51.89
2023-01-08T18:25:06.865Z,51.79
2023-01-08T18:27:34.731Z,52.10
2023-01-08T18:30:03.065Z,52.66
2023-01-08T18:32:30.144Z,52.50
2023-01-08T18:34:57.013Z,52.37
2023-01-08T18:37:23.963Z,52.59
2023-01-08T18:39:50.873Z,52.44
2023-01-08T18:42:17.764Z,52.18
2023-01-08T18:44:44.616Z,52.63
2023-01-08T18:47:12.626Z,52.82
2023-01-08T18:49:39.599Z,52.73
2023-01-08T18:52:06.578Z,52.28
2023-01-08T18:54:35.313Z,52.58
2023-01-08T18:57:02.554Z,52.37
2023-01-08T18:59:31.684Z,52.51
2023-01-08T19:01:59.083Z,52.39
2023-01-08T19:04:25.991Z,52.49
2023-01-08T19:06:52.989Z,52.33
2023-01-08T19:09:19.977Z,52.11
2023-01-08T19:11:46.906Z,52.15
2023-01-08T19:14:14.266Z,51.92
2023-01-08T19:16:41.357Z,51.70
2023-01-08T19:19:08.204Z,51.72
2023-01-08T19:21:35.334Z,50.99
2023-01-08T19:24:02.204Z,50.81
2023-01-08T19:26:29.219Z,50.65
2023-01-08T19:28:56.064Z,50.91
2023-01-08T19:31:22.986Z,51.08
2023-01-08T19:33:49.808Z,50.20
2023-01-08T19:36:16.753Z,50.47
2023-01-08T19:38:44.755Z,50.55
2023-01-08T19:41:14.023Z,50.39
2023-01-08T19:43:40.809Z,50.74
2023-01-08T19:46:08.325Z,50.94
2023-01-08T19:48:35.334Z,51.09
2023-01-08T19:51:09.449Z,51.24
2023-01-08T19:53:36.817Z,51.06
2023-01-08T19:56:05.695Z,51.13
2023-01-08T19:58:33.050Z,51.28
2023-01-08T20:01:00.345Z,51.15
2023-01-08T20:03:27.275Z,51.25
2023-01-08T20:05:54.622Z,51.05
2023-01-08T20:08:21.557Z,50.89
2023-01-08T20:10:48.415Z,50.81
2023-01-08T20:13:15.403Z,50.91
2023-01-08T20:15:42.212Z,51.27
2023-01-08T20:18:09.155Z,51.15
2023-01-08T20:20:36.022Z,51.03
2023-01-08T20:23:02.889Z,50.74
2023-01-08T20:25:29.910Z,50.99
2023-01-08T20:27:56.875Z,50.88
2023-01-08T20:30:23.721Z,50.50
2023-01-08T20:35:22.431Z,50.67
2023-01-08T20:37:49.288Z,50.77
2023-01-08T20:40:16.450Z,50.56
2023-01-08T20:42:43.308Z,51.48
2023-01-08T20:45:10.308Z,51.20
2023-01-08T20:47:37.201Z,51.07
2023-01-08T20:50:12.372Z,51.90
2023-01-08T20:52:45.967Z,51.79
2023-01-08T20:55:12.814Z,51.90
2023-01-08T20:57:39.748Z,52.07
2023-01-08T21:00:07.345Z,51.80
2023-01-08T21:02:34.307Z,51.84
2023-01-08T21:05:01.126Z,51.42
2023-01-08T21:07:28.154Z,51.48
2023-01-08T21:09:55.012Z,51.80
2023-01-08T21:12:21.887Z,51.58
2023-01-08T21:14:48.845Z,51.13
2023-01-08T21:17:15.793Z,51.75
2023-01-08T21:19:42.666Z,51.19
2023-01-08T21:22:09.569Z,51.04
2023-01-08T21:24:36.727Z,50.51
2023-01-08T21:27:03.724Z,51.14
2023-01-08T21:29:30.656Z,50.68
2023-01-08T21:31:57.595Z,50.75
2023-01-08T21:34:24.547Z,50.79
2023-01-08T21:36:51.531Z,50.52
2023-01-08T21:39:18.425Z,50.72
2023-01-08T21:41:45.328Z,50.07
2023-01-08T21:44:15.584Z,50.01
2023-01-08T21:46:42.581Z,49.93
2023-01-08T21:49:09.387Z,50.27
2023-01-08T21:51:36.277Z,50.36
2023-01-08T21:54:03.939Z,49.97
2023-01-08T21:56:31.340Z,49.71
2023-01-08T21:58:58.187Z,49.45
2023-01-08T22:01:25.193Z,49.43
2023-01-08T22:03:52.091Z,48.57
2023-01-08T22:06:19.180Z,48.85
2023-01-08T22:08:51.461Z,49.00
2023-01-08T22:11:18.607Z,48.71
2023-01-08T22:14:04.155Z,48.59
2023-01-08T22:16:31.168Z,48.42
2023-01-08T22:18:58.071Z,48.78
2023-01-08T22:21:26.009Z,48.51
2023-01-08T22:23:52.885Z,48.58
2023-01-08T22:26:19.809Z,48.80
2023-01-08T22:28:46.700Z,48.25
2023-01-08T22:31:15.131Z,49.44
2023-01-08T22:33:42.683Z,49.47
2023-01-08T22:36:12.225Z,49.28
2023-01-08T22:38:39.639Z,49.31
2023-01-08T22:41:17.226Z,49.10
2023-01-08T22:43:44.509Z,49.16
2023-01-08T22:46:15.760Z,49.40
2023-01-08T22:48:43.749Z,49.00
2023-01-08T22:51:11.300Z,49.36
2023-01-08T22:53:38.737Z,49.09
2023-01-08T22:56:07.869Z,49.63
2023-01-08T22:58:34.784Z,49.63
2023-01-08T23:01:01.564Z,49.66
2023-01-08T23:03:29.372Z,49.18
2023-01-08T23:06:05.448Z,50.03
2023-01-08T23:08:32.385Z,50.13
2023-01-08T23:10:59.558Z,49.95
2023-01-08T23:13:26.459Z,49.52
2023-01-08T23:15:53.351Z,49.32
2023-01-08T23:18:20.352Z,49.68
2023-01-08T23:20:47.270Z,49.44
2023-01-08T23:23:14.225Z,49.23
2023-01-08T23:25:41.070Z,49.18
2023-01-08T23:28:07.982Z,49.10
2023-01-08T23:30:35.064Z,49.29
2023-01-08T23:33:01.944Z,48.94
2023-01-08T23:35:28.738Z,48.57
2023-01-08T23:37:55.641Z,48.63
2023-01-08T23:40:22.417Z,48.74
2023-01-08T23:42:49.396Z,48.84
2023-01-08T23:45:16.339Z,48.65
2023-01-08T23:47:43.258Z,48.70
2023-01-08T23:50:10.790Z,48.41
2023-01-08T23:52:37.711Z,48.12
2023-01-08T23:55:05.058Z,47.97
2023-01-08T23:57:32.115Z,47.93
2023-01-08T23:59:58.947Z,48.21
